createdAt,value
2023-03-19T00:00:49.167Z,13.68
2023-03-19T00:03:16.680Z,12.60
2023-03-19T00:05:54.073Z,13.98
2023-03-19T00:08:22.922Z,13.45
2023-03-19T00:10:51.128Z,14.48
2023-03-19T00:13:20.142Z,14.43
2023-03-19T00:15:47.711Z,13.40
2023-03-19T00:18:15.408Z,13.55
2023-03-19T00:20:43.762Z,13.05
2023-03-19T00:23:11.349Z,13.95
2023-03-19T00:25:38.788Z,12.90
2023-03-19T00:28:06.409Z,13.32
2023-03-19T00:30:34.400Z,13.13
2023-03-19T00:33:03.125Z,13.27
2023-03-19T00:35:30.610Z,12.77
2023-03-19T00:37:58.478Z,13.43
2023-03-19T00:40:26.287Z,13.43
2023-03-19T00:42:53.878Z,14.18
2023-03-19T00:45:21.886Z,13.93
2023-03-19T00:47:49.927Z,13.25
2023-03-19T00:50:17.476Z,13.48
2023-03-19T00:52:44.937Z,14.38
2023-03-19T00:55:12.730Z,13.80
2023-03-19T00:57:40.417Z,13.95
2023-03-19T01:00:08.927Z,13.20
2023-03-19T01:02:36.962Z,14.43
2023-03-19T01:05:04.695Z,14.70
2023-03-19T01:07:33.184Z,13.27
2023-03-19T01:10:01.029Z,14.85
2023-03-19T01:12:28.741Z,13.13
2023-03-19T01:14:56.494Z,13.57
2023-03-19T01:17:24.230Z,14.25
2023-03-19T01:19:51.758Z,13.35
2023-03-19T01:22:19.451Z,13.43
2023-03-19T01:24:53.234Z,13.65
2023-03-19T01:27:21.439Z,14.65
2023-03-19T01:29:50.955Z,13.38
2023-03-19T01:32:29.456Z,13.93
2023-03-19T01:35:13.990Z,13.85
2023-03-19T01:37:41.948Z,14.98
2023-03-19T01:40:13.364Z,14.55
2023-03-19T01:42:55.598Z,14.55
2023-03-19T01:45:43.400Z,14.27
2023-03-19T01:48:34.301Z,14.43
2023-03-19T01:51:11.252Z,14.02
2023-03-19T01:54:10.628Z,14.10
2023-03-19T01:56:48.446Z,14.35
2023-03-19T01:59:37.565Z,14.70
2023-03-19T02:02:35.509Z,13.75
2023-03-19T02:05:25.617Z,16.55
2023-03-19T02:08:03.524Z,14.25
2023-03-19T02:10:32.481Z,15.05
2023-03-19T02:13:00.232Z,14.90
2023-03-19T02:15:28.237Z,14.82
2023-03-19T02:17:56.077Z,15.00
2023-03-19T02:20:43.351Z,14.45
2023-03-19T02:23:36.446Z,15.50
2023-03-19T02:26:16.308Z,15.90
2023-03-19T02:28:48.016Z,14.57
2023-03-19T02:31:20.988Z,14.38
2023-03-19T02:34:26.823Z,14.30
2023-03-19T02:37:01.110Z,14.63
2023-03-19T02:39:40.560Z,14.82
2023-03-19T02:42:11.315Z,15.15
2023-03-19T02:44:38.897Z,15.43
2023-03-19T02:47:09.661Z,15.55
2023-03-19T02:49:37.284Z,15.13
2023-03-19T02:52:05.211Z,16.10
2023-03-19T02:54:32.753Z,15.88
2023-03-19T02:57:00.326Z,15.75
2023-03-19T02:59:27.874Z,15.00
2023-03-19T03:01:55.453Z,15.65
2023-03-19T03:04:22.961Z,15.52
2023-03-19T03:06:50.430Z,14.73
2023-03-19T03:09:18.482Z,15.25
2023-03-19T03:11:46.260Z,16.35
2023-03-19T03:14:13.932Z,15.45
2023-03-19T03:16:44.571Z,15.73
2023-03-19T03:19:12.245Z,16.20
2023-03-19T03:21:39.926Z,15.65
2023-03-19T03:24:07.804Z,16.23
2023-03-19T03:26:38.927Z,16.38
2023-03-19T03:29:06.866Z,15.30
2023-03-19T03:31:35.069Z,15.32
2023-03-19T03:34:03.213Z,15.35
2023-03-19T03:36:32.572Z,15.63
2023-03-19T03:39:00.130Z,15.18
2023-03-19T03:41:27.729Z,15.95
2023-03-19T03:43:55.678Z,15.07
2023-03-19T03:46:24.429Z,15.95
2023-03-19T03:48:53.409Z,16.33
2023-03-19T03:51:21.785Z,15.43
2023-03-19T03:53:49.408Z,16.35
2023-03-19T03:56:16.931Z,15.77
2023-03-19T03:58:44.700Z,15.95
2023-03-19T04:01:19.527Z,16.05
2023-03-19T04:03:52.171Z,15.23
2023-03-19T04:06:22.821Z,15.70
2023-03-19T04:09:03.371Z,16.33
2023-03-19T04:11:33.965Z,15.13
2023-03-19T04:14:03.403Z,16.60
2023-03-19T04:16:33.518Z,16.17
2023-03-19T04:19:01.427Z,15.30
2023-03-19T04:21:30.225Z,14.90
2023-03-19T04:23:58.064Z,15.20
2023-03-19T04:26:25.733Z,14.38
2023-03-19T04:28:53.415Z,16.00
2023-03-19T04:31:21.037Z,15.23
2023-03-19T04:33:49.714Z,14.27
2023-03-19T04:36:18.063Z,14.90
2023-03-19T04:38:45.759Z,14.85
2023-03-19T04:41:16.379Z,15.55
2023-03-19T04:43:57.085Z,15.45
2023-03-19T04:46:24.935Z,14.75
2023-03-19T04:48:52.400Z,15.18
2023-03-19T04:51:21.735Z,14.63
2023-03-19T04:53:49.811Z,14.75
2023-03-19T04:56:18.522Z,14.77
2023-03-19T04:58:46.667Z,14.43
2023-03-19T05:01:14.179Z,14.13
2023-03-19T05:04:03.916Z,13.95
2023-03-19T05:06:34.073Z,14.13
2023-03-19T05:09:01.936Z,14.57
2023-03-19T05:11:29.501Z,14.48
2023-03-19T05:14:19.686Z,13.75
2023-03-19T05:16:59.986Z,14.50
2023-03-19T05:19:34.297Z,15.00
2023-03-19T05:22:02.093Z,13.85
2023-03-19T05:24:29.939Z,14.73
2023-03-19T05:26:58.432Z,14.20
2023-03-19T05:29:26.783Z,14.45
2023-03-19T05:32:17.677Z,14.32
2023-03-19T05:34:45.410Z,13.48
2023-03-19T05:37:13.964Z,13.80
2023-03-19T05:39:42.892Z,14.82
2023-03-19T05:42:11.513Z,13.32
2023-03-19T05:44:39.272Z,13.68
2023-03-19T05:47:18.423Z,14.05
2023-03-19T05:49:53.401Z,13.68
2023-03-19T05:52:21.374Z,14.18
2023-03-19T05:54:50.786Z,14.07
2023-03-19T05:57:41.389Z,13.90
2023-03-19T06:00:18.798Z,13.35
2023-03-19T06:02:48.224Z,13.95
2023-03-19T06:05:34.455Z,13.45
2023-03-19T06:08:18.060Z,13.15
2023-03-19T06:11:04.627Z,13.85
2023-03-19T06:13:34.049Z,14.70
2023-03-19T06:16:07.718Z,13.65
2023-03-19T06:18:42.241Z,13.55
2023-03-19T06:21:12.668Z,14.10
2023-03-19T06:23:40.344Z,13.30
2023-03-19T06:26:09.372Z,13.98
2023-03-19T06:28:44.845Z,13.27
2023-03-19T06:31:13.744Z,13.07
2023-03-19T06:36:31.128Z,13.63
2023-03-19T06:38:59.628Z,12.77
2023-03-19T06:41:27.455Z,12.77
2023-03-19T06:44:02.570Z,12.77
2023-03-19T06:46:30.665Z,13.07
2023-03-19T06:48:58.142Z,13.15
2023-03-19T06:51:27.985Z,13.75
2023-03-19T06:53:56.703Z,13.55
2023-03-19T06:56:24.149Z,12.30
2023-03-19T06:58:52.020Z,13.60
2023-03-19T07:01:19.496Z,13.40
2023-03-19T07:03:47.000Z,13.63
2023-03-19T07:06:14.543Z,12.82
2023-03-19T07:08:46.316Z,12.48
2023-03-19T07:11:14.998Z,12.52
2023-03-19T07:13:42.990Z,12.82
2023-03-19T07:16:10.548Z,12.20
2023-03-19T07:18:38.599Z,12.90
2023-03-19T07:21:06.147Z,12.35
2023-03-19T07:23:33.598Z,12.52
2023-03-19T07:26:01.096Z,13.15
2023-03-19T07:28:28.590Z,12.73
2023-03-19T07:30:56.472Z,11.73
2023-03-19T07:33:23.974Z,12.10
2023-03-19T07:35:51.904Z,13.68
2023-03-19T07:38:19.414Z,12.63
2023-03-19T07:41:00.910Z,13.85
2023-03-19T07:43:29.525Z,13.55
2023-03-19T07:45:57.499Z,12.23
2023-03-19T07:48:24.998Z,13.13
2023-03-19T07:50:52.781Z,13.50
2023-03-19T07:53:20.852Z,12.48
2023-03-19T07:55:49.053Z,13.23
2023-03-19T07:58:17.136Z,13.02
2023-03-19T08:00:45.389Z,13.30
2023-03-19T08:03:13.239Z,12.85
2023-03-19T08:05:40.943Z,12.60
2023-03-19T08:08:09.367Z,12.57
2023-03-19T08:10:38.592Z,12.07
2023-03-19T08:13:06.937Z,11.85
2023-03-19T08:15:34.923Z,12.57
2023-03-19T08:18:05.177Z,12.05
2023-03-19T08:20:33.263Z,12.48
2023-03-19T08:23:01.034Z,12.30
2023-03-19T08:25:32.629Z,11.77
2023-03-19T08:28:01.156Z,11.27
2023-03-19T08:30:29.174Z,12.30
2023-03-19T08:32:56.848Z,11.50
2023-03-19T08:35:27.190Z,11.20
2023-03-19T08:37:55.534Z,11.05
2023-03-19T08:40:23.965Z,10.73
2023-03-19T08:42:51.459Z,10.68
2023-03-19T08:45:19.304Z,11.45
2023-03-19T08:47:46.801Z,11.10
2023-03-19T08:50:14.763Z,11.13
2023-03-19T08:52:42.534Z,11.30
2023-03-19T08:55:10.701Z,12.25
2023-03-19T08:57:38.177Z,11.50
2023-03-19T09:00:06.444Z,12.15
2023-03-19T09:02:34.024Z,11.05
2023-03-19T09:05:01.491Z,11.32
2023-03-19T09:07:29.201Z,11.23
2023-03-19T09:09:56.612Z,12.93
2023-03-19T09:12:24.347Z,11.25
2023-03-19T09:14:51.956Z,11.38
2023-03-19T09:17:19.485Z,11.20
2023-03-19T09:19:46.947Z,11.32
2023-03-19T09:22:14.582Z,11.05
2023-03-19T09:24:42.112Z,11.23
2023-03-19T09:27:09.531Z,11.27
2023-03-19T09:29:36.995Z,10.98
2023-03-19T09:32:04.602Z,10.90
2023-03-19T09:34:32.056Z,11.73
2023-03-19T09:36:59.574Z,11.05
2023-03-19T09:39:26.996Z,10.77
2023-03-19T09:42:12.978Z,10.85
2023-03-19T09:44:44.368Z,11.30
2023-03-19T09:47:34.342Z,10.32
2023-03-19T09:50:11.504Z,11.18
2023-03-19T09:53:09.985Z,11.63
2023-03-19T09:55:44.519Z,10.95
2023-03-19T09:58:36.445Z,11.93
2023-03-19T10:01:05.024Z,12.25
2023-03-19T10:03:38.407Z,12.55
2023-03-19T10:06:21.351Z,12.48
2023-03-19T10:09:15.201Z,11.90
2023-03-19T10:12:01.388Z,11.03
2023-03-19T10:14:55.483Z,12.57
2023-03-19T10:17:29.366Z,12.90
2023-03-19T10:20:16.058Z,12.52
2023-03-19T10:22:51.807Z,12.05
2023-03-19T10:25:26.184Z,12.85
2023-03-19T10:28:01.948Z,11.30
2023-03-19T10:30:33.814Z,12.43
2023-03-19T10:33:26.451Z,12.63
2023-03-19T10:36:02.293Z,11.15
2023-03-19T10:38:31.159Z,12.20
2023-03-19T10:41:43.555Z,12.02
2023-03-19T10:44:29.467Z,12.50
2023-03-19T10:47:11.105Z,11.63
2023-03-19T10:49:38.772Z,11.80
2023-03-19T10:52:17.280Z,11.73
2023-03-19T10:54:46.162Z,12.65
2023-03-19T10:57:26.566Z,12.15
2023-03-19T10:59:54.720Z,12.10
2023-03-19T11:02:27.572Z,12.02
2023-03-19T11:05:23.809Z,12.07
2023-03-19T11:07:57.119Z,11.68
2023-03-19T11:10:30.184Z,12.43
2023-03-19T11:13:13.616Z,11.37
2023-03-19T11:15:41.491Z,11.30
2023-03-19T11:18:19.601Z,11.20
2023-03-19T11:20:55.740Z,11.70
2023-03-19T11:23:23.313Z,11.63
2023-03-19T11:25:53.186Z,11.93
2023-03-19T11:28:26.947Z,11.38
2023-03-19T11:33:50.553Z,10.95
2023-03-19T11:36:22.565Z,11.10
2023-03-19T11:39:00.820Z,10.75
2023-03-19T11:42:13.145Z,12.20
2023-03-19T11:44:52.906Z,11.93
2023-03-19T11:47:28.297Z,11.43
2023-03-19T11:50:08.469Z,13.23
2023-03-19T11:52:59.352Z,12.15
2023-03-19T11:55:38.609Z,11.95
2023-03-19T11:58:18.211Z,12.73
2023-03-19T12:00:54.067Z,12.93
2023-03-19T12:03:22.126Z,12.20
2023-03-19T12:05:59.921Z,11.93
2023-03-19T12:08:37.767Z,12.25
2023-03-19T12:11:35.648Z,12.25
2023-03-19T12:14:23.560Z,13.10
2023-03-19T12:17:15.980Z,12.68
2023-03-19T12:20:17.223Z,11.82
2023-03-19T12:23:23.212Z,11.82
2023-03-19T12:26:04.707Z,11.75
2023-03-19T12:28:41.927Z,14.40
2023-03-19T12:31:31.291Z,13.55
2023-03-19T12:34:05.272Z,13.13
2023-03-19T12:39:30.935Z,13.00
2023-03-19T12:44:37.708Z,13.73
2023-03-19T12:47:10.803Z,13.90
2023-03-19T12:49:46.449Z,14.70
2023-03-19T12:52:38.051Z,13.38
2023-03-19T12:55:25.800Z,13.77
2023-03-19T12:58:04.017Z,13.15
2023-03-19T13:00:43.403Z,14.20
2023-03-19T13:03:18.959Z,12.88
2023-03-19T13:06:05.112Z,13.55
2023-03-19T13:08:47.567Z,13.77
2023-03-19T13:11:36.542Z,14.15
2023-03-19T13:14:21.987Z,13.05
2023-03-19T13:17:12.378Z,13.75
2023-03-19T13:19:57.234Z,12.73
2023-03-19T13:22:32.206Z,14.00
2023-03-19T13:25:02.039Z,13.45
2023-03-19T13:27:36.857Z,13.40
2023-03-19T13:30:10.328Z,13.05
2023-03-19T13:32:46.015Z,12.75
2023-03-19T13:35:16.656Z,13.02
2023-03-19T13:37:44.696Z,13.13
2023-03-19T13:40:54.614Z,13.55
2023-03-19T13:43:31.326Z,13.18
2023-03-19T13:46:13.789Z,12.73
2023-03-19T13:48:47.781Z,13.02
2023-03-19T13:53:53.904Z,12.43
2023-03-19T13:56:30.050Z,13.20
2023-03-19T13:59:24.410Z,12.48
2023-03-19T14:01:51.992Z,11.70
2023-03-19T14:04:29.464Z,11.82
2023-03-19T14:07:13.455Z,11.82
2023-03-19T14:09:45.076Z,11.70
2023-03-19T14:12:18.566Z,12.00
2023-03-19T14:14:53.941Z,12.57
2023-03-19T14:17:35.035Z,11.25
2023-03-19T14:20:12.543Z,11.15
2023-03-19T14:22:58.277Z,11.07
2023-03-19T14:25:28.035Z,11.45
2023-03-19T14:28:02.394Z,12.38
2023-03-19T14:30:37.951Z,11.82
2023-03-19T14:33:15.548Z,10.73
2023-03-19T14:35:47.150Z,11.65
2023-03-19T14:38:29.496Z,11.15
2023-03-19T14:41:01.270Z,12.02
2023-03-19T14:43:53.603Z,11.02
2023-03-19T14:46:41.877Z,11.68
2023-03-19T14:49:46.618Z,12.07
2023-03-19T14:52:23.533Z,12.20
2023-03-19T14:54:55.977Z,11.77
2023-03-19T14:57:28.044Z,11.40
2023-03-19T14:59:56.714Z,12.88
2023-03-19T15:02:39.266Z,11.27
2023-03-19T15:05:18.926Z,11.90
2023-03-19T15:07:49.649Z,11.65
2023-03-19T15:10:27.915Z,12.07
2023-03-19T15:13:11.292Z,12.18
2023-03-19T15:16:00.784Z,12.17
2023-03-19T15:18:28.809Z,10.55
2023-03-19T15:20:57.002Z,12.95
2023-03-19T15:23:28.942Z,11.68
2023-03-19T15:26:02.047Z,12.45
2023-03-19T15:28:44.764Z,10.93
2023-03-19T15:31:30.433Z,11.70
2023-03-19T15:34:01.010Z,11.25
2023-03-19T15:36:31.769Z,10.55
2023-03-19T15:39:06.111Z,9.88
2023-03-19T15:41:40.437Z,10.35
2023-03-19T15:44:14.649Z,12.60
2023-03-19T15:46:44.725Z,11.90
2023-03-19T15:49:20.165Z,11.85
2023-03-19T15:51:53.502Z,11.35
2023-03-19T15:54:21.880Z,10.20
2023-03-19T15:56:51.326Z,10.00
2023-03-19T15:59:22.292Z,9.88
2023-03-19T16:01:51.163Z,9.88
2023-03-19T16:04:25.584Z,12.38
2023-03-19T16:06:53.324Z,9.10
2023-03-19T16:09:24.869Z,9.82
2023-03-19T16:11:54.299Z,10.90
2023-03-19T16:14:25.372Z,8.38
2023-03-19T16:16:59.984Z,7.07
2023-03-19T16:19:32.260Z,6.25
2023-03-19T16:22:01.115Z,5.70
2023-03-19T16:24:51.320Z,5.50
2023-03-19T16:27:21.591Z,5.53
2023-03-19T16:29:57.617Z,4.78
2023-03-19T16:32:27.088Z,4.25
2023-03-19T16:35:06.287Z,3.85
2023-03-19T16:37:33.933Z,3.70
2023-03-19T16:40:24.482Z,3.50
2023-03-19T16:43:06.190Z,3.15
2023-03-19T16:45:35.389Z,2.58
2023-03-19T16:48:03.697Z,2.70
2023-03-19T16:50:43.617Z,2.90
2023-03-19T16:53:22.627Z,2.65
2023-03-19T16:55:51.063Z,3.08
2023-03-19T16:58:27.217Z,2.65
2023-03-19T17:00:54.904Z,2.53
2023-03-19T17:03:22.317Z,3.10
2023-03-19T17:05:49.963Z,3.33
2023-03-19T17:08:17.569Z,3.13
2023-03-19T17:10:49.324Z,3.03
2023-03-19T17:13:28.215Z,2.90
2023-03-19T17:16:02.871Z,2.80
2023-03-19T17:18:35.218Z,2.63
2023-03-19T17:21:21.578Z,2.95
2023-03-19T17:23:49.721Z,2.70
2023-03-19T17:26:23.261Z,2.78
2023-03-19T17:28:50.812Z,2.97
2023-03-19T17:31:30.405Z,3.88
2023-03-19T17:34:12.826Z,3.58
2023-03-19T17:36:40.806Z,2.72
2023-03-19T17:39:11.400Z,3.00
2023-03-19T17:41:38.955Z,3.17
2023-03-19T17:44:06.784Z,3.33
2023-03-19T17:46:39.762Z,3.13
2023-03-19T17:49:20.704Z,3.42
2023-03-19T17:51:48.997Z,3.13
2023-03-19T17:54:16.470Z,2.50
2023-03-19T17:56:43.927Z,3.10
2023-03-19T17:59:12.184Z,3.17
2023-03-19T18:01:43.719Z,3.40
2023-03-19T18:04:15.057Z,3.25
2023-03-19T18:06:45.798Z,3.00
2023-03-19T18:09:22.357Z,3.58
2023-03-19T18:11:50.272Z,3.15
2023-03-19T18:14:18.014Z,3.08
2023-03-19T18:16:46.987Z,3.38
2023-03-19T18:19:37.849Z,3.33
2023-03-19T18:22:17.042Z,4.18
2023-03-19T18:24:44.952Z,3.35
2023-03-19T18:27:13.430Z,3.67
2023-03-19T18:29:40.979Z,3.35
2023-03-19T18:32:16.430Z,3.05
2023-03-19T18:34:44.126Z,3.63
2023-03-19T18:37:17.047Z,4.82
2023-03-19T18:39:45.154Z,4.40
2023-03-19T18:42:13.468Z,7.07
2023-03-19T18:44:40.978Z,9.40
2023-03-19T18:47:16.478Z,8.73
2023-03-19T18:49:44.821Z,7.60
2023-03-19T18:52:19.142Z,9.27
2023-03-19T18:54:47.211Z,9.93
2023-03-19T18:57:16.205Z,7.88
2023-03-19T18:59:43.893Z,6.07
2023-03-19T19:02:32.623Z,4.43
2023-03-19T19:05:00.819Z,3.53
2023-03-19T19:07:28.364Z,3.90
2023-03-19T19:09:55.947Z,3.17
2023-03-19T19:12:24.816Z,2.80
2023-03-19T19:14:52.385Z,3.10
2023-03-19T19:17:24.175Z,4.90
2023-03-19T19:19:51.810Z,4.93
2023-03-19T19:22:20.536Z,6.65
2023-03-19T19:24:48.075Z,6.47
2023-03-19T19:27:22.048Z,6.30
2023-03-19T19:29:50.396Z,4.25
2023-03-19T19:32:27.320Z,3.45
2023-03-19T19:34:55.178Z,3.05
2023-03-19T19:37:23.763Z,4.93
2023-03-19T19:39:51.778Z,4.70
2023-03-19T19:42:22.413Z,3.90
2023-03-19T19:44:59.043Z,3.30
2023-03-19T19:47:27.849Z,2.47
2023-03-19T19:49:56.612Z,3.08
2023-03-19T19:52:24.113Z,2.70
2023-03-19T19:54:52.041Z,2.75
2023-03-19T19:57:23.152Z,2.30
2023-03-19T19:59:52.077Z,2.17
2023-03-19T20:02:31.174Z,2.65
2023-03-19T20:04:58.897Z,2.80
2023-03-19T20:07:27.257Z,2.60
2023-03-19T20:09:54.743Z,3.00
2023-03-19T20:12:26.609Z,2.92
2023-03-19T20:14:54.167Z,3.28
2023-03-19T20:17:21.618Z,2.88
2023-03-19T20:19:49.366Z,2.88
2023-03-19T20:22:17.109Z,3.65
2023-03-19T20:24:45.552Z,3.53
2023-03-19T20:27:33.706Z,3.40
2023-03-19T20:30:01.662Z,3.00
2023-03-19T20:32:33.183Z,3.40
2023-03-19T20:35:01.237Z,3.38
2023-03-19T20:37:29.061Z,3.40
2023-03-19T20:39:56.887Z,3.25
2023-03-19T20:42:25.593Z,2.80
2023-03-19T20:44:58.189Z,3.03
2023-03-19T20:47:26.097Z,2.95
2023-03-19T20:49:54.094Z,3.75
2023-03-19T20:52:21.640Z,3.65
2023-03-19T20:54:49.135Z,3.60
2023-03-19T20:57:21.402Z,7.47
2023-03-19T20:59:48.940Z,11.55
2023-03-19T21:02:18.675Z,9.30
2023-03-19T21:04:47.714Z,3.83
2023-03-19T21:07:27.579Z,4.00
2023-03-19T21:09:58.679Z,3.10
2023-03-19T21:12:32.440Z,5.80
2023-03-19T21:15:01.364Z,6.22
2023-03-19T21:17:28.887Z,4.45
2023-03-19T21:19:56.990Z,15.45
2023-03-19T21:22:28.812Z,14.43
2023-03-19T21:25:06.135Z,8.35
2023-03-19T21:27:36.781Z,7.82
2023-03-19T21:30:08.054Z,6.53
2023-03-19T21:32:35.685Z,5.88
2023-03-19T21:35:03.138Z,4.22
2023-03-19T21:37:30.639Z,4.30
2023-03-19T21:39:58.023Z,3.95
2023-03-19T21:42:31.902Z,5.57
2023-03-19T21:47:27.139Z,13.25
2023-03-19T21:49:55.697Z,9.07
2023-03-19T21:52:23.202Z,8.00
2023-03-19T21:54:51.216Z,6.78
2023-03-19T21:57:18.781Z,7.22
2023-03-19T21:59:47.137Z,9.02
2023-03-19T22:02:23.635Z,8.48
2023-03-19T22:04:51.155Z,5.25
2023-03-19T22:07:18.646Z,3.60
2023-03-19T22:09:46.178Z,3.40
2023-03-19T22:12:27.613Z,3.58
2023-03-19T22:14:55.492Z,3.28
2023-03-19T22:17:25.862Z,3.70
2023-03-19T22:19:53.490Z,3.67
2023-03-19T22:22:20.934Z,3.80
2023-03-19T22:24:48.503Z,3.45
2023-03-19T22:27:17.426Z,4.50
2023-03-19T22:29:46.237Z,4.50
2023-03-19T22:32:18.515Z,5.10
2023-03-19T22:34:46.118Z,3.72
2023-03-19T22:37:26.488Z,3.78
2023-03-19T22:39:54.753Z,3.17
2023-03-19T22:42:26.418Z,3.10
2023-03-19T22:44:54.848Z,3.10
2023-03-19T22:47:25.234Z,2.70
2023-03-19T22:49:52.768Z,2.50
2023-03-19T22:52:20.146Z,3.28
2023-03-19T22:54:48.098Z,2.30
2023-03-19T22:57:15.873Z,2.30
2023-03-19T22:59:44.072Z,2.72
2023-03-19T23:02:14.927Z,2.67
2023-03-19T23:04:42.427Z,3.10
2023-03-19T23:07:12.674Z,2.80
2023-03-19T23:09:40.540Z,2.90
2023-03-19T23:14:36.927Z,2.90
2023-03-19T23:17:14.482Z,3.50
2023-03-19T23:19:42.027Z,3.03
2023-03-19T23:22:15.295Z,3.00
2023-03-19T23:24:42.805Z,2.63
2023-03-19T23:27:23.305Z,3.30
2023-03-19T23:29:51.225Z,2.75
2023-03-19T23:32:18.670Z,2.97
2023-03-19T23:34:59.181Z,2.60
2023-03-19T23:37:29.216Z,2.60
2023-03-19T23:39:58.035Z,3.10
2023-03-19T23:42:29.113Z,3.10
2023-03-19T23:44:59.518Z,2.95
2023-03-19T23:47:29.016Z,2.65
2023-03-19T23:49:57.057Z,2.83
2023-03-19T23:52:24.553Z,2.70
2023-03-19T23:54:52.588Z,3.20
2023-03-19T23:57:22.352Z,2.90
2023-03-19T23:59:52.394Z,2.63
